createdAt,value
2018-10-11T08:07:02.399Z,28.00
2018-10-11T08:08:02.310Z,28.00
2018-10-11T08:09:02.383Z,28.00
2018-10-11T08:10:02.284Z,32.00
2018-10-11T08:11:02.361Z,32.00
2018-10-11T08:12:02.582Z,32.00
2018-10-11T08:13:02.277Z,28.00
2018-10-11T08:14:02.243Z,28.00
2018-10-11T08:15:02.235Z,32.00
2018-10-11T08:16:02.250Z,36.00
2018-10-11T08:17:02.507Z,36.00
2018-10-11T08:18:02.448Z,32.00
2018-10-11T08:19:02.309Z,32.00
2018-10-11T08:20:02.361Z,32.00
2018-10-11T08:21:02.148Z,32.00
2018-10-11T08:22:02.130Z,32.00
2018-10-11T08:23:02.112Z,32.00
2018-10-11T08:24:02.097Z,32.00
2018-10-11T08:25:02.554Z,32.00
2018-10-11T08:26:02.560Z,32.00
2018-10-11T08:27:02.086Z,32.00
2018-10-11T08:28:02.041Z,32.00
2018-10-11T08:29:02.016Z,32.00
2018-10-11T08:30:01.999Z,32.00
2018-10-11T08:31:02.138Z,32.00
2018-10-11T08:32:01.978Z,32.00
2018-10-11T08:33:02.038Z,32.00
2018-10-11T08:34:01.944Z,32.00
2018-10-11T08:35:01.936Z,32.00
2018-10-11T08:36:01.926Z,32.00
2018-10-11T08:37:09.170Z,32.00
2018-10-11T08:38:02.113Z,32.00
2018-10-11T08:39:01.890Z,32.00
2018-10-11T08:40:01.877Z,36.00
2018-10-11T08:41:01.862Z,36.00
2018-10-11T08:42:01.852Z,36.00
2018-10-11T08:43:01.873Z,32.00
2018-10-11T08:44:01.935Z,32.00
2018-10-11T08:45:01.811Z,32.00
2018-10-11T08:46:01.805Z,36.00
2018-10-11T08:47:01.792Z,36.00
2018-10-11T08:48:01.795Z,36.00
2018-10-11T08:49:01.863Z,36.00
2018-10-11T08:50:01.776Z,36.00
2018-10-11T08:51:01.754Z,32.00
2018-10-11T08:52:01.744Z,32.00
2018-10-11T08:53:01.728Z,36.00
2018-10-11T08:54:01.721Z,36.00
2018-10-11T08:55:01.875Z,36.00
2018-10-11T08:56:01.765Z,32.00
2018-10-11T08:57:01.686Z,32.00
2018-10-11T08:58:01.671Z,32.00
2018-10-11T08:59:01.705Z,32.00
2018-10-11T09:00:01.638Z,32.00
2018-10-11T09:01:01.666Z,32.00
2018-10-11T09:02:01.615Z,32.00
2018-10-11T09:03:01.602Z,32.00
2018-10-11T09:04:01.748Z,32.00
2018-10-11T09:05:01.579Z,32.00
2018-10-11T09:06:01.562Z,28.00
2018-10-11T09:07:01.586Z,32.00
2018-10-11T09:08:11.556Z,28.00
2018-10-11T09:09:01.516Z,32.00
2018-10-11T09:10:01.501Z,32.00
2018-10-11T09:11:01.531Z,32.00
2018-10-11T09:12:01.466Z,32.00
2018-10-11T09:13:01.488Z,32.00
2018-10-11T09:14:01.433Z,32.00
2018-10-11T09:15:01.414Z,32.00
2018-10-11T09:16:01.399Z,32.00
2018-10-11T09:17:01.376Z,32.00
2018-10-11T09:18:01.356Z,32.00
2018-10-11T09:19:01.358Z,32.00
2018-10-11T09:20:01.326Z,36.00
2018-10-11T09:21:01.321Z,36.00
2018-10-11T09:22:01.300Z,36.00
2018-10-11T09:23:01.302Z,36.00
2018-10-11T09:24:01.265Z,36.00
2018-10-11T09:25:01.274Z,36.00
2018-10-11T09:26:01.231Z,32.00
2018-10-11T09:27:01.215Z,36.00
2018-10-11T09:28:01.202Z,36.00
2018-10-11T09:29:01.182Z,36.00
2018-10-11T09:30:01.169Z,36.00
2018-10-11T09:31:01.225Z,36.00
2018-10-11T09:32:01.147Z,36.00
2018-10-11T09:33:01.128Z,32.00
2018-10-11T09:34:01.131Z,36.00
2018-10-11T09:35:01.084Z,36.00
2018-10-11T09:36:01.073Z,36.00
2018-10-11T09:37:01.105Z,36.00
2018-10-11T09:38:01.051Z,36.00
2018-10-11T09:39:10.846Z,36.00
2018-10-11T09:40:01.020Z,36.00
2018-10-11T09:41:01.001Z,36.00
2018-10-11T09:42:00.980Z,36.00
2018-10-11T09:43:01.043Z,40.00
2018-10-11T09:44:00.940Z,40.00
2018-10-11T09:45:00.922Z,32.00
2018-10-11T09:46:00.901Z,40.00
2018-10-11T09:47:00.890Z,36.00
2018-10-11T09:48:00.866Z,36.00
2018-10-11T09:49:00.895Z,36.00
2018-10-11T09:50:00.845Z,40.00
2018-10-11T09:51:00.829Z,40.00
2018-10-11T09:52:00.801Z,36.00
2018-10-11T09:53:00.787Z,36.00
2018-10-11T09:54:00.767Z,36.00
2018-10-11T09:55:00.779Z,36.00
2018-10-11T09:56:01.180Z,36.00
2018-10-11T09:57:00.689Z,36.00
2018-10-11T09:58:00.677Z,36.00
2018-10-11T09:59:00.643Z,36.00
2018-10-11T10:00:00.626Z,36.00
2018-10-11T10:01:00.653Z,40.00
2018-10-11T10:02:00.673Z,40.00
2018-10-11T10:03:00.623Z,40.00
2018-10-11T10:04:00.573Z,40.00
2018-10-11T10:05:00.562Z,40.00
2018-10-11T10:06:00.559Z,40.00
2018-10-11T10:07:00.583Z,36.00
2018-10-11T10:08:00.534Z,40.00
2018-10-11T10:09:00.530Z,40.00
2018-10-11T10:10:10.755Z,40.00
2018-10-11T10:11:00.509Z,40.00
2018-10-11T10:12:00.495Z,36.00
2018-10-11T10:13:00.510Z,40.00
2018-10-11T10:14:00.481Z,40.00
2018-10-11T10:15:00.468Z,36.00
2018-10-11T10:16:00.505Z,36.00
2018-10-11T10:17:00.449Z,36.00
2018-10-11T10:18:00.430Z,36.00
2018-10-11T10:19:00.470Z,36.00
2018-10-11T10:20:00.407Z,36.00
2018-10-11T10:21:00.444Z,36.00
2018-10-11T10:22:00.398Z,40.00
2018-10-11T10:23:00.398Z,40.00
2018-10-11T10:24:00.349Z,40.00
2018-10-11T10:25:00.381Z,40.00
2018-10-11T10:26:00.315Z,40.00
2018-10-11T10:27:00.347Z,44.00
2018-10-11T10:28:00.296Z,44.00
2018-10-11T10:29:00.284Z,44.00
2018-10-11T10:30:00.269Z,44.00
2018-10-11T10:31:00.291Z,40.00
2018-10-11T10:32:00.242Z,40.00
2018-10-11T10:33:00.232Z,40.00
2018-10-11T10:34:00.260Z,40.00
2018-10-11T10:35:00.205Z,44.00
2018-10-11T10:36:00.189Z,44.00
2018-10-11T10:37:00.430Z,44.00
2018-10-11T10:38:00.155Z,40.00
2018-10-11T10:39:00.133Z,44.00
2018-10-11T10:40:00.251Z,44.00
2018-10-11T10:41:10.100Z,44.00
2018-10-11T10:42:00.095Z,40.00
2018-10-11T10:43:00.117Z,44.00
2018-10-11T10:44:00.061Z,36.00
2018-10-11T10:45:00.045Z,40.00
2018-10-11T10:46:00.032Z,44.00
2018-10-11T10:47:00.002Z,44.00
2018-10-11T10:47:59.982Z,44.00
2018-10-11T10:48:59.994Z,52.00
2018-10-11T10:49:59.942Z,40.00
2018-10-11T10:50:59.928Z,40.00
2018-10-11T10:51:59.976Z,44.00
2018-10-11T10:52:59.971Z,48.00
2018-10-11T10:53:59.954Z,40.00
2018-10-11T10:55:00.105Z,48.00
2018-10-11T10:55:59.940Z,44.00
2018-10-11T10:56:59.920Z,44.00
2018-10-11T10:57:59.906Z,48.00
2018-10-11T10:58:59.891Z,48.00
2018-10-11T10:59:59.879Z,48.00
2018-10-11T11:01:00.039Z,48.00
2018-10-11T11:01:59.851Z,44.00
2018-10-11T11:02:59.894Z,24.00
2018-10-11T11:03:59.828Z,24.00
2018-10-11T11:04:59.809Z,24.00
2018-10-11T11:05:59.795Z,24.00
2018-10-11T11:06:59.958Z,28.00
2018-10-11T11:07:59.771Z,24.00
2018-10-11T11:08:59.757Z,24.00
2018-10-11T11:09:59.743Z,24.00
2018-10-11T11:10:59.737Z,24.00
2018-10-11T11:12:10.319Z,24.00
2018-10-11T11:12:59.754Z,24.00
2018-10-11T11:13:59.702Z,28.00
2018-10-11T11:14:59.689Z,28.00
2018-10-11T11:15:59.677Z,24.00
2018-10-11T11:16:59.663Z,24.00
2018-10-11T11:17:59.687Z,24.00
2018-10-11T11:18:59.730Z,24.00
2018-10-11T11:19:59.635Z,24.00
2018-10-11T11:20:59.610Z,24.00
2018-10-11T11:21:59.604Z,24.00
2018-10-11T11:22:59.591Z,24.00
2018-10-11T11:23:59.604Z,20.00
2018-10-11T11:24:59.557Z,24.00
2018-10-11T11:25:59.541Z,24.00
2018-10-11T11:26:59.523Z,16.00
2018-10-11T11:27:59.501Z,24.00
2018-10-11T11:28:59.487Z,24.00
2018-10-11T11:29:59.503Z,20.00
2018-10-11T11:30:59.505Z,20.00
2018-10-11T11:31:59.440Z,20.00
2018-10-11T11:32:59.420Z,24.00
2018-10-11T11:33:59.408Z,24.00
2018-10-11T11:34:59.395Z,20.00
2018-10-11T11:35:59.421Z,20.00
2018-10-11T11:36:59.367Z,24.00
2018-10-11T11:37:59.353Z,24.00
2018-10-11T11:38:59.339Z,24.00
2018-10-11T11:39:59.384Z,4.00
2018-10-11T11:40:59.311Z,4.00
2018-10-11T11:41:59.327Z,4.00
2018-10-11T11:43:09.781Z,4.00
2018-10-11T11:43:59.269Z,4.00
2018-10-11T11:44:59.253Z,4.00
2018-10-11T11:45:59.381Z,4.00
2018-10-11T11:46:59.223Z,4.00
2018-10-11T11:47:59.273Z,4.00
2018-10-11T11:48:59.233Z,4.00
2018-10-11T11:49:59.182Z,4.00
2018-10-11T11:50:59.165Z,4.00
2018-10-11T11:51:59.150Z,4.00
2018-10-11T11:52:59.153Z,4.00
2018-10-11T11:53:59.303Z,4.00
2018-10-11T11:54:59.127Z,4.00
2018-10-11T11:55:59.112Z,4.00
2018-10-11T11:56:59.100Z,4.00
2018-10-11T11:57:59.182Z,4.00
2018-10-11T11:58:59.077Z,4.00
2018-10-11T11:59:59.235Z,4.00
2018-10-11T12:00:59.053Z,8.00
2018-10-11T12:01:59.058Z,4.00
2018-10-11T12:02:59.034Z,8.00
2018-10-11T12:03:59.023Z,4.00
2018-10-11T12:04:59.022Z,8.00
2018-10-11T12:05:59.040Z,4.00
2018-10-11T12:06:58.992Z,4.00
2018-10-11T12:07:58.985Z,4.00
2018-10-11T12:08:58.973Z,4.00
2018-10-11T12:09:58.961Z,4.00
2018-10-11T12:10:58.971Z,4.00
2018-10-11T12:11:58.975Z,4.00
2018-10-11T12:12:58.919Z,4.00
2018-10-11T12:14:09.679Z,4.00
2018-10-11T12:14:58.916Z,4.00
2018-10-11T12:15:58.904Z,4.00
2018-10-11T12:16:58.894Z,4.00
2018-10-11T12:17:59.055Z,8.00
2018-10-11T12:18:58.877Z,4.00
2018-10-11T12:19:58.871Z,4.00
2018-10-11T12:20:58.851Z,4.00
2018-10-11T12:21:58.880Z,4.00
2018-10-11T12:22:58.828Z,4.00
2018-10-11T12:23:58.888Z,4.00
2018-10-11T12:24:58.866Z,4.00
2018-10-11T12:25:58.804Z,4.00
2018-10-11T12:26:58.786Z,4.00
2018-10-11T12:27:58.772Z,4.00
2018-10-11T12:28:58.804Z,4.00
2018-10-11T12:29:58.779Z,4.00
2018-10-11T12:30:58.731Z,4.00
2018-10-11T12:31:58.718Z,4.00
2018-10-11T12:32:58.705Z,4.00
2018-10-11T12:33:58.690Z,4.00
2018-10-11T12:34:58.675Z,4.00
2018-10-11T12:35:58.704Z,4.00
2018-10-11T12:36:58.655Z,4.00
2018-10-11T12:37:58.652Z,4.00
2018-10-11T12:38:58.640Z,4.00
2018-10-11T12:39:58.617Z,8.00
2018-10-11T12:40:58.625Z,4.00
2018-10-11T12:41:58.619Z,8.00
2018-10-11T12:42:58.574Z,4.00
2018-10-11T12:43:58.546Z,4.00
2018-10-11T12:45:11.561Z,4.00
2018-10-11T12:45:58.506Z,4.00
2018-10-11T12:46:58.493Z,4.00
2018-10-11T12:47:58.519Z,4.00
2018-10-11T12:48:58.469Z,4.00
2018-10-11T12:49:58.478Z,4.00
2018-10-11T12:50:58.437Z,4.00
2018-10-11T12:51:58.421Z,4.00
2018-10-11T12:52:58.397Z,4.00
2018-10-11T12:53:58.396Z,0.00
2018-10-11T12:54:58.473Z,0.00
2018-10-11T12:55:58.340Z,0.00
2018-10-11T12:56:58.382Z,0.00
2018-10-11T12:57:58.292Z,0.00
2018-10-11T12:58:58.277Z,0.00
2018-10-11T12:59:58.431Z,4.00
2018-10-11T13:00:58.312Z,4.00
2018-10-11T13:01:58.215Z,0.00
2018-10-11T13:02:58.290Z,0.00
2018-10-11T13:03:58.187Z,0.00
2018-10-11T13:04:58.171Z,4.00
2018-10-11T13:05:58.327Z,4.00
2018-10-11T13:06:58.140Z,4.00
2018-10-11T13:07:58.120Z,4.00
2018-10-11T13:08:58.097Z,0.00
2018-10-11T13:09:58.089Z,4.00
2018-10-11T13:10:58.073Z,4.00
2018-10-11T13:11:58.211Z,4.00
2018-10-11T13:12:58.963Z,0.00
2018-10-11T13:13:58.099Z,0.00
2018-10-11T13:15:00.116Z,52.00
2018-10-11T13:16:02.838Z,56.00
2018-10-11T13:17:00.061Z,48.00
2018-10-11T13:18:00.044Z,48.00
2018-10-11T13:19:00.033Z,60.00
2018-10-11T13:20:00.035Z,64.00
2018-10-11T13:21:00.052Z,68.00
2018-10-11T13:22:00.009Z,104.00
2018-10-11T13:23:00.079Z,104.00
2018-10-11T13:23:59.985Z,104.00
2018-10-11T13:24:59.969Z,104.00
2018-10-11T13:25:59.962Z,108.00
2018-10-11T13:26:59.990Z,104.00
2018-10-11T13:27:59.941Z,100.00
2018-10-11T13:29:00.066Z,104.00
2018-10-11T13:29:59.927Z,104.00
2018-10-11T13:30:59.909Z,104.00
2018-10-11T13:31:59.896Z,104.00
2018-10-11T13:32:59.924Z,104.00
2018-10-11T13:33:59.877Z,104.00
2018-10-11T13:34:59.925Z,104.00
2018-10-11T13:35:59.855Z,100.00
2018-10-11T13:36:59.847Z,100.00
2018-10-11T13:37:59.837Z,96.00
2018-10-11T13:38:59.890Z,84.00
2018-10-11T13:39:59.815Z,68.00
2018-10-11T13:41:03.080Z,60.00
2018-10-11T13:41:59.789Z,52.00
2018-10-11T13:42:59.784Z,48.00
2018-10-11T13:43:59.774Z,48.00
2018-10-11T13:45:06.921Z,48.00
2018-10-11T13:46:01.977Z,52.00
2018-10-11T13:46:59.739Z,56.00
2018-10-11T13:47:59.726Z,60.00
2018-10-11T13:48:59.714Z,56.00
2018-10-11T13:49:59.702Z,52.00
2018-10-11T13:50:59.740Z,48.00
2018-10-11T13:51:59.688Z,48.00
2018-10-11T13:52:59.752Z,48.00
2018-10-11T13:53:59.660Z,44.00
2018-10-11T13:54:59.660Z,48.00
2018-10-11T13:55:59.647Z,48.00
2018-10-11T13:57:02.894Z,48.00
2018-10-11T13:57:59.618Z,48.00
2018-10-11T13:58:59.616Z,48.00
2018-10-11T13:59:59.602Z,48.00
2018-10-11T14:00:59.586Z,44.00
2018-10-11T14:01:59.576Z,44.00
2018-10-11T14:02:59.587Z,40.00
2018-10-11T14:03:59.552Z,44.00
2018-10-11T14:04:59.544Z,44.00
2018-10-11T14:05:59.535Z,44.00
2018-10-11T14:06:59.527Z,40.00
2018-10-11T14:07:59.512Z,40.00
2018-10-11T14:08:59.547Z,44.00
2018-10-11T14:09:59.491Z,44.00
2018-10-11T14:10:59.485Z,44.00
2018-10-11T14:11:59.468Z,44.00
2018-10-11T14:12:59.458Z,44.00
2018-10-11T14:13:59.445Z,44.00
2018-10-11T14:14:59.898Z,44.00
2018-10-11T14:16:10.783Z,40.00
2018-10-11T14:16:59.465Z,40.00
2018-10-11T14:18:03.253Z,40.00
2018-10-11T14:19:00.395Z,40.00
2018-10-11T14:19:59.379Z,40.00
2018-10-11T14:20:59.408Z,40.00
2018-10-11T14:21:59.364Z,40.00
2018-10-11T14:22:59.353Z,40.00
2018-10-11T14:23:59.392Z,40.00
2018-10-11T14:24:59.329Z,40.00
2018-10-11T14:25:59.364Z,40.00
2018-10-11T14:26:59.346Z,40.00
2018-10-11T14:27:59.296Z,40.00
2018-10-11T14:28:59.286Z,40.00
2018-10-11T14:29:59.272Z,40.00
2018-10-11T14:30:59.264Z,40.00
2018-10-11T14:31:59.253Z,40.00
2018-10-11T14:32:59.263Z,40.00
2018-10-11T14:33:59.230Z,40.00
2018-10-11T14:34:59.226Z,40.00
2018-10-11T14:35:59.210Z,40.00
2018-10-11T14:36:59.253Z,40.00
2018-10-11T14:37:59.195Z,40.00
2018-10-11T14:38:59.213Z,40.00
2018-10-11T14:39:59.166Z,40.00
2018-10-11T14:40:59.158Z,40.00
2018-10-11T14:41:59.151Z,40.00
2018-10-11T14:42:59.132Z,40.00
2018-10-11T14:43:59.122Z,40.00
2018-10-11T14:44:59.135Z,40.00
2018-10-11T14:45:59.109Z,40.00
2018-10-11T14:47:12.445Z,40.00
2018-10-11T14:47:59.078Z,40.00
2018-10-11T14:48:59.071Z,40.00
2018-10-11T14:49:59.060Z,36.00
2018-10-11T14:50:59.173Z,36.00
2018-10-11T14:51:59.044Z,36.00
2018-10-11T14:52:59.028Z,36.00
2018-10-11T14:53:59.633Z,36.00
2018-10-11T14:54:59.003Z,36.00
2018-10-11T14:55:58.993Z,36.00
2018-10-11T14:56:59.139Z,36.00
2018-10-11T14:57:58.976Z,36.00
2018-10-11T14:58:58.962Z,36.00
2018-10-11T14:59:58.961Z,36.00
2018-10-11T15:00:58.939Z,36.00
2018-10-11T15:01:58.933Z,36.00
2018-10-11T15:02:59.111Z,36.00
2018-10-11T15:03:58.910Z,36.00
2018-10-11T15:04:58.898Z,36.00
2018-10-11T15:05:58.890Z,40.00
2018-10-11T15:06:58.877Z,40.00
2018-10-11T15:07:58.869Z,40.00
2018-10-11T15:08:59.037Z,40.00
2018-10-11T15:09:58.848Z,40.00
2018-10-11T15:10:58.980Z,40.00
2018-10-11T15:11:58.823Z,40.00
2018-10-11T15:12:58.818Z,40.00
2018-10-11T15:13:58.804Z,40.00
2018-10-11T15:14:58.963Z,40.00
2018-10-11T15:15:58.925Z,40.00
2018-10-11T15:16:58.766Z,40.00
2018-10-11T15:18:09.663Z,40.00
2018-10-11T15:18:58.746Z,40.00
2018-10-11T15:19:58.739Z,40.00
2018-10-11T15:20:58.836Z,40.00
2018-10-11T15:21:58.712Z,40.00
2018-10-11T15:22:58.704Z,40.00
2018-10-11T15:23:58.798Z,40.00
2018-10-11T15:24:58.690Z,40.00
2018-10-11T15:25:58.674Z,40.00
2018-10-11T15:26:58.701Z,40.00
2018-10-11T15:27:58.650Z,40.00
2018-10-11T15:28:58.643Z,40.00
2018-10-11T15:29:58.633Z,36.00
2018-10-11T15:30:58.617Z,36.00
2018-10-11T15:31:58.605Z,36.00
2018-10-11T15:32:58.633Z,36.00
2018-10-11T15:33:58.590Z,36.00
2018-10-11T15:34:58.596Z,36.00
2018-10-11T15:35:58.563Z,36.00
2018-10-11T15:36:58.584Z,36.00
2018-10-11T15:37:58.541Z,36.00
2018-10-11T15:38:58.576Z,36.00
2018-10-11T15:39:58.528Z,36.00
2018-10-11T15:40:58.518Z,36.00
2018-10-11T15:41:58.498Z,36.00
2018-10-11T15:42:58.493Z,36.00
2018-10-11T15:43:58.483Z,0.00
2018-10-11T15:44:58.510Z,0.00
2018-10-11T15:45:58.456Z,0.00
2018-10-11T15:46:58.444Z,0.00
2018-10-11T15:47:58.440Z,0.00
2018-10-11T15:49:09.362Z,0.00
2018-10-11T15:49:58.416Z,0.00
2018-10-11T15:50:58.448Z,0.00
2018-10-11T15:51:58.402Z,0.00
2018-10-11T15:52:58.384Z,0.00
2018-10-11T15:53:58.372Z,0.00
2018-10-11T15:54:58.362Z,0.00
2018-10-11T15:55:58.351Z,0.00
2018-10-11T15:56:58.516Z,0.00
2018-10-11T15:57:58.335Z,0.00
2018-10-11T15:58:58.320Z,0.00
2018-10-11T15:59:58.317Z,0.00
2018-10-11T16:00:58.300Z,0.00
2018-10-11T16:01:58.292Z,0.00
2018-10-11T16:02:58.320Z,0.00
2018-10-11T16:03:58.271Z,0.00
2018-10-11T16:04:58.262Z,0.00
2018-10-11T16:05:58.251Z,0.00
2018-10-11T16:06:58.231Z,0.00
2018-10-11T16:07:58.233Z,0.00
2018-10-11T16:08:58.306Z,0.00
2018-10-11T16:09:58.202Z,0.00
2018-10-11T16:10:58.189Z,0.00
2018-10-11T16:11:58.232Z,0.00
2018-10-11T16:12:58.180Z,0.00
2018-10-11T16:13:58.163Z,0.00
2018-10-11T16:14:58.184Z,0.00
2018-10-11T16:15:58.141Z,0.00
2018-10-11T16:16:58.137Z,0.00
2018-10-11T16:17:58.117Z,0.00
2018-10-11T16:18:58.115Z,0.00
2018-10-11T16:20:09.614Z,0.00
2018-10-11T16:20:58.085Z,0.00
2018-10-11T16:21:58.076Z,0.00
2018-10-11T16:22:58.072Z,0.00
2018-10-11T16:23:58.064Z,0.00
2018-10-11T16:24:58.047Z,0.00
2018-10-11T16:25:58.067Z,0.00
2018-10-11T16:26:58.035Z,0.00
2018-10-11T16:27:58.016Z,0.00
2018-10-11T16:28:58.010Z,0.00
2018-10-11T16:29:57.995Z,0.00
2018-10-11T16:30:57.982Z,0.00
2018-10-11T16:31:58.036Z,0.00
2018-10-11T16:32:57.967Z,0.00
2018-10-11T16:33:57.953Z,0.00
2018-10-11T16:34:57.934Z,0.00
2018-10-11T16:35:57.928Z,0.00
2018-10-11T16:36:57.915Z,0.00
2018-10-11T16:37:57.927Z,0.00
2018-10-11T16:38:57.905Z,0.00
2018-10-11T16:39:57.880Z,0.00
2018-10-11T16:40:57.875Z,0.00
2018-10-11T16:41:57.858Z,0.00
2018-10-11T16:42:57.853Z,0.00
2018-10-11T16:43:57.877Z,0.00
2018-10-11T16:44:57.827Z,0.00
2018-10-11T16:45:57.820Z,0.00
2018-10-11T16:46:57.807Z,0.00
2018-10-11T16:47:57.821Z,0.00
2018-10-11T16:48:57.787Z,0.00
2018-10-11T16:49:57.848Z,0.00
2018-10-11T16:51:08.181Z,0.00
2018-10-11T16:51:57.762Z,0.00
2018-10-11T16:52:57.751Z,0.00
2018-10-11T16:53:57.733Z,0.00
2018-10-11T16:54:57.723Z,0.00
2018-10-11T16:55:57.751Z,0.00
2018-10-11T16:56:57.703Z,0.00
2018-10-11T16:57:57.741Z,0.00
2018-10-11T16:58:57.714Z,0.00
2018-10-11T16:59:57.672Z,0.00
2018-10-11T17:00:57.664Z,0.00
2018-10-11T17:01:57.697Z,0.00
2018-10-11T17:02:57.640Z,0.00
2018-10-11T17:03:57.646Z,0.00
2018-10-11T17:04:57.618Z,0.00
2018-10-11T17:05:57.606Z,0.00
2018-10-11T17:06:57.597Z,0.00
2018-10-11T17:07:57.674Z,0.00
2018-10-11T17:08:57.576Z,0.00
2018-10-11T17:09:57.600Z,0.00
2018-10-11T17:10:57.554Z,0.00
2018-10-11T17:11:57.584Z,0.00
2018-10-11T17:12:58.097Z,0.00
2018-10-11T17:13:57.643Z,0.00
2018-10-11T17:14:57.510Z,0.00
2018-10-11T17:15:57.507Z,0.00
2018-10-11T17:16:57.490Z,0.00
2018-10-11T17:17:57.482Z,0.00
2018-10-11T17:18:57.474Z,0.00
2018-10-11T17:19:57.480Z,0.00
2018-10-11T17:20:57.450Z,0.00
2018-10-11T17:22:09.636Z,0.00
2018-10-11T17:22:57.431Z,0.00
2018-10-11T17:23:57.423Z,0.00
2018-10-11T17:24:57.407Z,0.00
2018-10-11T17:25:57.434Z,0.00
2018-10-11T17:26:57.386Z,0.00
2018-10-11T17:27:57.375Z,0.00
2018-10-11T17:28:57.364Z,0.00
2018-10-11T17:29:57.358Z,0.00
2018-10-11T17:30:57.343Z,0.00
2018-10-11T17:31:57.506Z,0.00
2018-10-11T17:32:57.325Z,0.00
2018-10-11T17:33:57.311Z,0.00
2018-10-11T17:34:57.303Z,0.00
2018-10-11T17:35:57.290Z,0.00
2018-10-11T17:36:57.277Z,0.00
2018-10-11T17:37:57.304Z,0.00
2018-10-11T17:38:57.258Z,0.00
2018-10-11T17:39:57.249Z,0.00
2018-10-11T17:40:57.241Z,0.00
2018-10-11T17:41:57.246Z,0.00
2018-10-11T17:42:57.219Z,0.00
2018-10-11T17:43:57.277Z,0.00
2018-10-11T17:44:57.217Z,0.00
2018-10-11T17:45:57.182Z,0.00
2018-10-11T17:46:57.173Z,0.00
2018-10-11T17:47:57.164Z,0.00
2018-10-11T17:48:57.149Z,0.00
2018-10-11T17:49:57.177Z,0.00
2018-10-11T17:50:57.133Z,0.00
2018-10-11T17:51:57.118Z,0.00
2018-10-11T17:53:07.427Z,0.00
2018-10-11T17:53:57.096Z,0.00
2018-10-11T17:54:57.088Z,0.00
2018-10-11T17:55:57.219Z,0.00
2018-10-11T17:56:57.067Z,0.00
2018-10-11T17:57:57.061Z,0.00
2018-10-11T17:58:57.046Z,0.00
2018-10-11T17:59:57.039Z,0.00
2018-10-11T18:00:57.025Z,0.00
2018-10-11T18:01:57.036Z,0.00
2018-10-11T18:02:57.004Z,0.00
2018-10-11T18:03:56.991Z,0.00
2018-10-11T18:04:56.987Z,0.00
2018-10-11T18:05:56.969Z,0.00
2018-10-11T18:06:56.965Z,0.00
2018-10-11T18:07:56.984Z,0.00
2018-10-11T18:08:56.937Z,0.00
2018-10-11T18:09:56.980Z,0.00
2018-10-11T18:10:56.921Z,0.00
2018-10-11T18:11:56.913Z,0.00
2018-10-11T18:12:56.901Z,0.00
2018-10-11T18:13:57.064Z,0.00
2018-10-11T18:14:56.875Z,0.00
2018-10-11T18:15:56.919Z,0.00
2018-10-11T18:16:56.855Z,0.00
2018-10-11T18:17:56.844Z,0.00
2018-10-11T18:18:56.833Z,0.00
2018-10-11T18:19:56.994Z,0.00
2018-10-11T18:20:56.811Z,0.00
2018-10-11T18:21:56.810Z,0.00
2018-10-11T18:22:56.796Z,0.00
2018-10-11T18:24:07.435Z,0.00
2018-10-11T18:24:56.770Z,0.00
2018-10-11T18:25:56.782Z,0.00
2018-10-11T18:26:56.746Z,0.00
2018-10-11T18:27:56.743Z,0.00
2018-10-11T18:28:56.783Z,0.00
2018-10-11T18:29:56.717Z,0.00
2018-10-11T18:30:56.706Z,0.00
2018-10-11T18:31:56.732Z,0.00
2018-10-11T18:32:56.687Z,0.00
2018-10-11T18:33:56.678Z,0.00
2018-10-11T18:34:56.664Z,0.00
2018-10-11T18:35:56.657Z,0.00
2018-10-11T18:36:56.645Z,0.00
2018-10-11T18:37:56.680Z,0.00
2018-10-11T18:38:56.626Z,0.00
2018-10-11T18:39:56.609Z,0.00
2018-10-11T18:40:56.602Z,0.00
2018-10-11T18:41:56.590Z,0.00
2018-10-11T18:42:56.580Z,0.00
2018-10-11T18:43:56.587Z,0.00
2018-10-11T18:44:56.560Z,0.00
2018-10-11T18:45:56.548Z,0.00
2018-10-11T18:46:56.536Z,0.00
2018-10-11T18:47:56.529Z,0.00
2018-10-11T18:48:56.521Z,0.00
2018-10-11T18:49:56.706Z,0.00
2018-10-11T18:50:56.610Z,0.00
2018-10-11T18:51:56.489Z,0.00
2018-10-11T18:52:56.470Z,0.00
2018-10-11T18:53:56.463Z,0.00
2018-10-11T18:55:06.798Z,0.00
2018-10-11T18:55:56.442Z,0.00
2018-10-11T18:56:56.431Z,0.00
2018-10-11T18:57:56.493Z,0.00
2018-10-11T18:58:56.409Z,0.00
2018-10-11T18:59:56.403Z,0.00
2018-10-11T19:00:56.452Z,0.00
2018-10-11T19:01:56.380Z,0.00
2018-10-11T19:02:56.372Z,0.00
2018-10-11T19:03:56.359Z,0.00
2018-10-11T19:04:56.344Z,0.00
2018-10-11T19:05:56.338Z,0.00
2018-10-11T19:06:56.360Z,0.00
2018-10-11T19:07:56.312Z,0.00
2018-10-11T19:08:56.307Z,0.00
2018-10-11T19:09:56.298Z,0.00
2018-10-11T19:10:56.284Z,0.00
2018-10-11T19:11:56.274Z,0.00
2018-10-11T19:12:56.305Z,0.00
2018-10-11T19:13:56.249Z,0.00
2018-10-11T19:14:56.241Z,0.00
2018-10-11T19:15:56.231Z,0.00
2018-10-11T19:16:56.221Z,0.00
2018-10-11T19:17:56.205Z,0.00
2018-10-11T19:18:56.238Z,0.00
2018-10-11T19:19:56.185Z,0.00
2018-10-11T19:20:56.271Z,0.00
2018-10-11T19:21:56.170Z,0.00
2018-10-11T19:22:56.160Z,0.00
2018-10-11T19:23:56.144Z,0.00
2018-10-11T19:24:56.431Z,0.00
2018-10-11T19:26:09.113Z,0.00
2018-10-11T19:26:56.115Z,0.00
2018-10-11T19:27:56.105Z,0.00
2018-10-11T19:28:56.097Z,0.00
2018-10-11T19:29:56.079Z,0.00
2018-10-11T19:30:56.160Z,0.00
2018-10-11T19:31:56.059Z,0.00
2018-10-11T19:32:56.047Z,0.00
2018-10-11T19:33:56.037Z,0.00
2018-10-11T19:34:56.033Z,0.00
2018-10-11T19:35:56.015Z,0.00
2018-10-11T19:36:56.045Z,0.00
2018-10-11T19:37:55.992Z,0.00
2018-10-11T19:38:55.983Z,0.00
2018-10-11T19:39:55.979Z,0.00
2018-10-11T19:40:55.968Z,0.00
2018-10-11T19:41:55.952Z,0.00
2018-10-11T19:42:55.959Z,0.00
2018-10-11T19:43:55.933Z,0.00
2018-10-11T19:44:55.923Z,0.00
2018-10-11T19:45:55.914Z,0.00
2018-10-11T19:46:55.899Z,0.00
2018-10-11T19:47:55.907Z,0.00
2018-10-11T19:48:56.016Z,0.00
2018-10-11T19:49:55.873Z,0.00
2018-10-11T19:50:55.863Z,0.00
2018-10-11T19:51:55.844Z,0.00
2018-10-11T19:52:55.838Z,0.00
2018-10-11T19:53:55.825Z,0.00
2018-10-11T19:54:55.848Z,0.00
2018-10-11T19:55:55.813Z,0.00
2018-10-11T19:57:08.845Z,0.00
2018-10-11T19:57:55.783Z,0.00
2018-10-11T19:58:55.777Z,0.00
2018-10-11T19:59:55.761Z,0.00
2018-10-11T20:00:55.922Z,0.00
2018-10-11T20:01:55.739Z,0.00
2018-10-11T20:02:55.727Z,0.00
2018-10-11T20:03:55.723Z,0.00
2018-10-11T20:04:55.711Z,0.00
2018-10-11T20:05:55.722Z,0.00
2018-10-11T20:06:55.708Z,0.00
2018-10-11T20:07:55.734Z,0.00
2018-10-11T20:08:55.670Z,0.00
2018-10-11T20:09:55.652Z,0.00
2018-10-11T20:10:55.643Z,0.00
2018-10-11T20:11:55.636Z,0.00
2018-10-11T20:12:55.662Z,0.00
2018-10-11T20:13:55.618Z,0.00
2018-10-11T20:14:55.598Z,0.00
2018-10-11T20:15:55.593Z,0.00
2018-10-11T20:16:55.581Z,0.00
2018-10-11T20:17:55.574Z,0.00
2018-10-11T20:18:55.592Z,0.00
2018-10-11T20:19:55.556Z,0.00
2018-10-11T20:20:55.535Z,0.00
2018-10-11T20:21:55.528Z,0.00
2018-10-11T20:22:55.518Z,0.00
2018-10-11T20:23:55.510Z,0.00
2018-10-11T20:24:55.537Z,0.00
2018-10-11T20:25:55.580Z,0.00
2018-10-11T20:26:55.477Z,0.00
2018-10-11T20:28:06.666Z,0.00
2018-10-11T20:28:55.452Z,0.00
2018-10-11T20:29:55.446Z,0.00
2018-10-11T20:30:55.573Z,0.00
2018-10-11T20:31:55.421Z,0.00
2018-10-11T20:32:55.409Z,0.00
2018-10-11T20:33:55.398Z,0.00
2018-10-11T20:34:55.390Z,0.00
2018-10-11T20:35:55.377Z,0.00
2018-10-11T20:36:55.382Z,0.00
2018-10-11T20:37:55.363Z,0.00
2018-10-11T20:38:55.348Z,0.00
2018-10-11T20:39:55.335Z,0.00
2018-10-11T20:40:55.321Z,0.00
2018-10-11T20:41:55.311Z,0.00
2018-10-11T20:42:55.394Z,0.00
2018-10-11T20:43:55.315Z,0.00
2018-10-11T20:44:55.283Z,0.00
2018-10-11T20:45:55.272Z,0.00
2018-10-11T20:46:55.260Z,0.00
2018-10-11T20:47:55.248Z,0.00
2018-10-11T20:48:55.276Z,0.00
2018-10-11T20:49:55.225Z,0.00
2018-10-11T20:50:55.217Z,0.00
2018-10-11T20:51:55.208Z,0.00
2018-10-11T20:52:55.198Z,0.00
2018-10-11T20:53:55.185Z,0.00
2018-10-11T20:54:55.210Z,0.00
2018-10-11T20:55:55.162Z,0.00
2018-10-11T20:56:55.156Z,0.00
2018-10-11T20:57:55.147Z,0.00
2018-10-11T20:59:05.460Z,0.00
2018-10-11T20:59:55.121Z,0.00
2018-10-11T21:00:55.288Z,0.00
2018-10-11T21:01:55.103Z,0.00
2018-10-11T21:02:55.088Z,0.00
2018-10-11T21:03:55.082Z,0.00
2018-10-11T21:04:55.073Z,0.00
2018-10-11T21:05:55.118Z,0.00
2018-10-11T21:06:55.082Z,0.00
2018-10-11T21:07:55.033Z,0.00
2018-10-11T21:08:55.033Z,0.00
2018-10-11T21:09:55.016Z,0.00
2018-10-11T21:10:55.004Z,0.00
2018-10-11T21:11:55.056Z,0.00